createdAt,value
2019-04-28T00:01:32.228Z,77.7
2019-04-28T00:16:45.167Z,77.8
2019-04-28T00:32:01.452Z,77.3
2019-04-28T00:47:14.278Z,75.6
2019-04-28T01:02:28.179Z,76.7
2019-04-28T01:17:35.722Z,76.8
2019-04-28T01:32:56.000Z,77.6
2019-04-28T01:48:10.359Z,73.9
2019-04-28T02:03:23.692Z,73.3
2019-04-28T02:18:25.280Z,71.3
2019-04-28T02:33:54.032Z,70.8
2019-04-28T02:49:04.960Z,69.4
2019-04-28T03:04:20.527Z,69.5
2019-04-28T03:19:34.411Z,68
2019-04-28T03:34:44.551Z,67.8
2019-04-28T03:50:00.433Z,67.3
2019-04-28T04:05:13.251Z,69.2
2019-04-28T04:20:26.591Z,68.4
2019-04-28T04:35:32.002Z,65.4
2019-04-28T04:50:54.059Z,64.5
2019-04-28T05:06:07.865Z,63
2019-04-28T05:21:21.870Z,61.4
2019-04-28T05:36:44.595Z,60
2019-04-28T05:51:50.691Z,60.5
2019-04-28T06:07:04.045Z,60.5
2019-04-28T06:22:18.143Z,60.7
2019-04-28T06:37:31.750Z,59.8
2019-04-28T06:52:40.326Z,58.2
2019-04-28T07:07:59.839Z,57
2019-04-28T07:23:13.956Z,56.5
2019-04-28T07:38:28.087Z,56.1
2019-04-28T07:53:30.455Z,56.7
2019-04-28T08:08:56.432Z,54.5
2019-04-28T08:24:10.738Z,53.2
2019-04-28T08:39:27.000Z,52
2019-04-28T08:54:39.724Z,50
2019-04-28T09:09:51.129Z,45.2
2019-04-28T09:25:09.157Z,44
2019-04-28T09:40:23.993Z,44.5
2019-04-28T09:55:38.948Z,41.4
2019-04-28T10:10:45.005Z,38.4
2019-04-28T10:26:09.425Z,35.8
2019-04-28T10:41:25.034Z,37.1
2019-04-28T10:56:40.607Z,40.2
2019-04-28T11:11:56.476Z,37.2
2019-04-28T11:27:10.194Z,36.6
2019-04-28T11:42:27.139Z,39.5
2019-04-28T11:57:42.283Z,41.5
2019-04-28T12:12:57.501Z,40.8
2019-04-28T12:28:04.697Z,41
2019-04-28T12:43:28.059Z,40.7
2019-04-28T12:58:43.105Z,41.8
2019-04-28T13:13:58.427Z,39.5
2019-04-28T13:29:00.103Z,36.4
2019-04-28T13:44:29.862Z,33.2
2019-04-28T13:59:46.095Z,32.2
2019-04-28T14:15:02.028Z,33.1
2019-04-28T14:30:17.947Z,32.8
2019-04-28T14:45:27.004Z,33.6
2019-04-28T15:00:50.129Z,31.1
2019-04-28T15:16:06.405Z,32.1
2019-04-28T15:31:23.027Z,30.7
2019-04-28T15:46:24.896Z,28.5
2019-04-28T16:01:55.053Z,28.4
2019-04-28T16:17:13.644Z,26.9
2019-04-28T16:32:30.692Z,27.2
2019-04-28T16:47:47.766Z,27.9
2019-04-28T17:02:53.249Z,29.8
2019-04-28T17:18:20.712Z,30.9
2019-04-28T17:33:36.945Z,31.9
2019-04-28T17:48:52.817Z,34.5
2019-04-28T18:04:08.376Z,36.7
2019-04-28T18:19:17.636Z,38.8
2019-04-28T18:34:38.893Z,40.2
2019-04-28T18:49:53.814Z,42.5
2019-04-28T19:05:10.732Z,44.3
2019-04-28T19:20:23.475Z,45.8
2019-04-28T19:35:38.120Z,47.1
2019-04-28T19:50:52.799Z,48.7
2019-04-28T20:06:07.211Z,49.7
2019-04-28T20:21:21.758Z,50.5
2019-04-28T20:36:33.334Z,51.7
2019-04-28T20:51:50.425Z,52
2019-04-28T21:07:04.690Z,52.1
2019-04-28T21:22:18.966Z,53.6
2019-04-28T21:37:24.239Z,53.4
2019-04-28T21:52:47.875Z,53.6
2019-04-28T22:06:08.261Z,51.3
2019-04-28T22:21:22.716Z,54.7
2019-04-28T22:36:37.068Z,56.6
2019-04-28T22:51:39.830Z,58
2019-04-28T23:07:05.402Z,60.5
2019-04-28T23:22:19.517Z,61
2019-04-28T23:37:33.646Z,61.5
2019-04-28T23:52:47.484Z,61.9
